Time;durP1;ratioP1;P1;durP2;ratioP2;P2;SDS_P1;SDS_P2;PMS_P1;PMS_P2;Temp;Humidity;BMP_temperature;BMP_pressure;BME280_temperature;BME280_humidity;BME280_pressure;Samples;Min_cycle;Max_cycle;Signal;HPM_P1;HPM_P2
2021/07/13 00:01:32;;;;;;;12.75;2.80;;;22.90;90.90;;;;;;5073935;28;20040;-65
2021/07/13 00:04:36;;;;;;;5.70;2.80;;;22.90;91.20;;;;;;5074104;28;20493;-64
2021/07/13 00:07:41;;;;;;;6.68;2.90;;;22.70;91.50;;;;;;5074167;28;20470;-64
2021/07/13 00:10:45;;;;;;;15.18;2.97;;;22.60;91.80;;;;;;5073424;28;20383;-64
2021/07/13 00:13:51;;;;;;;4.55;2.72;;;22.60;92.00;;;;;;5073831;28;20056;-65
2021/07/13 00:16:55;;;;;;;8.77;2.55;;;22.50;92.20;;;;;;5073795;28;20043;-65
2021/07/13 00:19:59;;;;;;;5.35;2.58;;;22.40;92.30;;;;;;5074169;28;20079;-65
2021/07/13 00:23:04;;;;;;;6.00;2.78;;;22.30;92.30;;;;;;5073809;28;20048;-65
2021/07/13 00:26:09;;;;;;;5.65;2.53;;;22.30;92.40;;;;;;5073108;28;20048;-64
2021/07/13 00:29:12;;;;;;;7.20;2.67;;;22.30;92.70;;;;;;5073772;28;20035;-64
2021/07/13 00:32:16;;;;;;;8.27;2.72;;;22.10;93.00;;;;;;5073044;28;20055;-64
2021/07/13 00:35:21;;;;;;;6.45;2.47;;;22.00;92.90;;;;;;5073278;28;20398;-64
2021/07/13 00:38:25;;;;;;;4.18;2.15;;;22.00;92.80;;;;;;5073677;28;20048;-64
2021/07/13 00:41:32;;;;;;;7.18;2.65;;;22.10;92.70;;;;;;5072918;28;20422;-64
2021/07/13 00:44:37;;;;;;;7.18;2.53;;;22.00;92.60;;;;;;5073621;28;20044;-64
2021/07/13 00:47:41;;;;;;;9.30;2.50;;;22.00;92.70;;;;;;5073757;28;20048;-65
2021/07/13 00:50:45;;;;;;;4.72;2.53;;;22.00;92.80;;;;;;5073112;28;20040;-65
2021/07/13 00:53:50;;;;;;;6.30;2.58;;;21.90;92.90;;;;;;5073242;28;20055;-64
2021/07/13 00:56:56;;;;;;;5.20;2.30;;;21.90;93.00;;;;;;5073415;28;20051;-64
2021/07/13 01:00:00;;;;;;;3.75;2.63;;;21.90;93.20;;;;;;5073241;28;20039;-64
2021/07/13 01:03:06;;;;;;;8.70;2.88;;;21.90;93.30;;;;;;5073272;28;20043;-64
2021/07/13 01:06:12;;;;;;;3.42;2.20;;;21.80;93.40;;;;;;5073129;28;20047;-64
2021/07/13 01:09:47;;;;;;;8.65;2.60;;;21.70;93.80;;;;;;5072263;28;20063;-65
2021/07/13 01:13:02;;;;;;;4.32;2.45;;;21.70;93.90;;;;;;5073164;28;20040;-64
2021/07/13 01:16:24;;;;;;;7.13;2.58;;;21.60;94.00;;;;;;5072942;28;20055;-64
2021/07/13 01:19:34;;;;;;;6.25;2.38;;;21.60;94.00;;;;;;5073023;28;20364;-64
2021/07/13 01:22:45;;;;;;;7.75;2.75;;;21.70;93.90;;;;;;5072858;28;20048;-64
2021/07/13 01:26:02;;;;;;;10.48;2.83;;;21.70;94.00;;;;;;5072560;28;20780;-64
2021/07/13 01:29:12;;;;;;;7.78;2.85;;;21.70;93.90;;;;;;5072214;28;20498;-64
2021/07/13 01:32:20;;;;;;;8.43;2.30;;;21.60;93.90;;;;;;5072301;28;20380;-64
2021/07/13 01:35:29;;;;;;;5.82;2.80;;;21.60;94.00;;;;;;5072467;28;20048;-65
2021/07/13 01:38:37;;;;;;;4.55;2.33;;;21.50;94.40;;;;;;5072636;28;20047;-64
2021/07/13 01:41:42;;;;;;;5.47;2.63;;;21.40;94.80;;;;;;5071646;28;20510;-64
2021/07/13 01:44:49;;;;;;;3.75;2.25;;;21.30;94.80;;;;;;5071871;28;20051;-64
2021/07/13 01:47:54;;;;;;;4.70;2.40;;;21.30;94.90;;;;;;5072577;28;20052;-65
2021/07/13 01:50:35;;;;;;;8.32;3.35;;;21.30;95.00;;;;;;5067821;28;20375;-65
2021/07/13 01:53:40;;;;;;;8.43;2.70;;;21.30;95.40;;;;;;5068401;28;20037;-65
2021/07/13 01:56:47;;;;;;;11.00;3.78;;;21.30;95.10;;;;;;5068177;28;20044;-64
2021/07/13 01:59:51;;;;;;;7.47;2.47;;;21.30;95.10;;;;;;5068207;28;20048;-65
2021/07/13 02:03:02;;;;;;;7.13;2.88;;;21.20;95.20;;;;;;5068385;28;20036;-64
2021/07/13 02:06:08;;;;;;;5.53;3.22;;;21.20;95.40;;;;;;5067966;28;20123;-64
2021/07/13 02:09:14;;;;;;;7.82;3.15;;;21.10;95.60;;;;;;5068088;28;20037;-65
2021/07/13 02:12:18;;;;;;;5.90;2.75;;;21.10;95.40;;;;;;5067595;28;20037;-65
2021/07/13 02:15:22;;;;;;;4.88;2.88;;;21.10;95.60;;;;;;5066863;28;20040;-64
2021/07/13 02:18:27;;;;;;;3.60;2.50;;;21.00;95.80;;;;;;5067265;28;20607;-65
2021/07/13 02:21:32;;;;;;;6.18;2.75;;;21.00;96.10;;;;;;5067069;28;20041;-64
2021/07/13 02:24:36;;;;;;;7.63;2.60;;;21.00;95.90;;;;;;5067635;28;20041;-64
2021/07/13 02:28:02;;;;;;;6.70;2.63;;;20.90;96.30;;;;;;5067510;28;20033;-64
2021/07/13 02:31:24;;;;;;;6.93;2.78;;;20.80;96.50;;;;;;5067036;28;20033;-64
2021/07/13 02:34:30;;;;;;;6.30;2.30;;;20.60;97.20;;;;;;5066585;28;20037;-64
2021/07/13 02:37:36;;;;;;;5.15;2.88;;;20.60;97.60;;;;;;5067038;28;20032;-64
2021/07/13 02:40:41;;;;;;;8.35;2.80;;;20.60;97.90;;;;;;5066774;28;20037;-64
2021/07/13 02:43:47;;;;;;;5.72;3.00;;;20.60;97.80;;;;;;5067197;28;20467;-64
2021/07/13 02:46:52;;;;;;;5.68;2.55;;;20.70;97.80;;;;;;5066805;28;20037;-65
2021/07/13 02:50:00;;;;;;;4.53;2.95;;;20.70;97.90;;;;;;5066595;28;20045;-64
2021/07/13 02:53:04;;;;;;;6.03;2.42;;;20.70;97.90;;;;;;5066889;28;20033;-65
2021/07/13 02:56:10;;;;;;;5.57;2.60;;;20.60;98.10;;;;;;5066491;28;20033;-64
2021/07/13 02:59:21;;;;;;;5.63;2.70;;;20.70;97.70;;;;;;5066884;28;20033;-64
2021/07/13 03:02:26;;;;;;;12.23;2.70;;;20.80;97.40;;;;;;5052937;28;20029;-64
2021/07/13 03:05:31;;;;;;;6.95;2.72;;;20.90;97.30;;;;;;5053904;28;20040;-64
2021/07/13 03:08:36;;;;;;;4.78;2.50;;;20.80;97.50;;;;;;5064093;28;20373;-64
2021/07/13 03:11:41;;;;;;;8.80;2.53;;;20.80;97.60;;;;;;5052889;28;20037;-64
2021/07/13 03:14:45;;;;;;;6.13;2.63;;;20.70;97.70;;;;;;5052403;28;20037;-64
2021/07/13 03:17:51;;;;;;;4.88;2.33;;;20.70;98.00;;;;;;5052487;28;20036;-64
2021/07/13 03:20:59;;;;;;;2.70;2.30;;;20.70;97.90;;;;;;5052886;28;20037;-65
2021/07/13 03:24:06;;;;;;;3.97;2.38;;;20.70;98.10;;;;;;5053467;28;20053;-64
2021/07/13 03:27:13;;;;;;;6.93;2.90;;;20.60;98.30;;;;;;5052884;28;20032;-64
2021/07/13 03:30:18;;;;;;;4.85;2.60;;;20.60;98.50;;;;;;5052617;28;20037;-65
2021/07/13 03:33:23;;;;;;;5.53;2.97;;;20.60;98.50;;;;;;5053252;28;20464;-64
2021/07/13 03:36:29;;;;;;;4.68;2.60;;;20.60;98.60;;;;;;5052817;28;20045;-65
2021/07/13 03:39:33;;;;;;;7.22;3.15;;;20.60;98.80;;;;;;5052950;28;20033;-64
2021/07/13 03:42:39;;;;;;;5.97;2.78;;;20.60;98.80;;;;;;5052860;28;20041;-64
2021/07/13 03:45:43;;;;;;;6.10;2.97;;;20.60;98.90;;;;;;5052907;28;20041;-65
2021/07/13 03:48:48;;;;;;;5.00;2.55;;;20.60;99.00;;;;;;5052544;28;20044;-64
2021/07/13 03:51:53;;;;;;;4.00;2.47;;;20.60;99.00;;;;;;5052259;28;20037;-65
2021/07/13 03:54:57;;;;;;;6.80;2.60;;;20.70;99.10;;;;;;5052554;28;20503;-64
2021/07/13 03:58:14;;;;;;;9.13;2.53;;;20.70;99.10;;;;;;5052578;28;20479;-65
2021/07/13 04:01:18;;;;;;;8.45;2.40;;;20.70;99.00;;;;;;5051840;28;20040;-64
2021/07/13 04:04:23;;;;;;;5.60;2.63;;;20.80;99.00;;;;;;5052637;28;20040;-64
2021/07/13 04:07:27;;;;;;;6.18;2.60;;;20.80;99.00;;;;;;5052298;28;20463;-65
2021/07/13 04:10:31;;;;;;;7.65;2.80;;;20.80;98.90;;;;;;5051637;28;20045;-65
2021/07/13 04:13:35;;;;;;;7.03;2.75;;;20.80;99.10;;;;;;5051450;28;20384;-64
2021/07/13 04:16:39;;;;;;;5.43;2.40;;;20.90;98.90;;;;;;5052031;28;20029;-64
2021/07/13 04:19:43;;;;;;;5.00;2.65;;;20.90;98.90;;;;;;5052168;28;20032;-64
2021/07/13 04:22:49;;;;;;;4.72;2.55;;;21.00;98.80;;;;;;5051075;28;20049;-64
2021/07/13 04:25:53;;;;;;;5.65;2.42;;;21.00;98.60;;;;;;5052374;28;20045;-64
2021/07/13 04:28:57;;;;;;;9.57;2.53;;;21.20;98.20;;;;;;5052288;28;20048;-64
2021/07/13 04:32:01;;;;;;;8.45;3.22;;;21.40;97.90;;;;;;5047519;28;20033;-65
2021/07/13 04:35:06;;;;;;;6.22;2.47;;;21.40;97.90;;;;;;5051747;28;20040;-64
2021/07/13 04:38:10;;;;;;;6.85;3.10;;;21.50;97.90;;;;;;5047454;28;20047;-64
2021/07/13 04:41:16;;;;;;;3.40;2.20;;;21.50;98.00;;;;;;5048760;28;20041;-64
2021/07/13 04:44:20;;;;;;;6.25;2.80;;;21.60;98.40;;;;;;5048201;28;20041;-65
2021/07/13 04:47:24;;;;;;;16.92;3.35;;;21.60;97.80;;;;;;5041407;28;20048;-65
2021/07/13 04:50:29;;;;;;;7.82;2.75;;;21.40;98.10;;;;;;5046289;28;20052;-64
2021/07/13 04:53:34;;;;;;;11.40;2.75;;;21.30;98.20;;;;;;5049052;28;20118;-63
2021/07/13 04:56:38;;;;;;;6.50;2.90;;;21.20;98.40;;;;;;5049349;28;20040;-64
2021/07/13 04:59:42;;;;;;;5.97;2.75;;;21.10;98.80;;;;;;5049704;28;20052;-63
2021/07/13 05:02:46;;;;;;;5.35;2.50;;;21.00;99.10;;;;;;5050108;28;20056;-64
2021/07/13 05:05:51;;;;;;;4.85;2.42;;;21.00;99.50;;;;;;5036728;28;20052;-64
2021/07/13 05:08:55;;;;;;;9.68;3.08;;;21.10;99.40;;;;;;5043033;28;20079;-64
2021/07/13 05:11:59;;;;;;;4.82;2.60;;;21.30;99.80;;;;;;5051028;28;20052;-64
2021/07/13 05:15:05;;;;;;;4.13;2.50;;;21.40;99.90;;;;;;5050999;28;20037;-65
2021/07/13 05:18:11;;;;;;;13.18;2.50;;;21.50;99.90;;;;;;5037654;28;20029;-65
2021/07/13 05:21:15;;;;;;;6.75;2.85;;;21.50;99.90;;;;;;5035644;28;20044;-66
2021/07/13 05:24:19;;;;;;;7.57;2.50;;;21.60;99.90;;;;;;5045679;28;20407;-63
2021/07/13 05:27:24;;;;;;;4.43;2.53;;;21.70;99.60;;;;;;5050481;28;20063;-64
2021/07/13 05:30:28;;;;;;;7.50;3.10;;;21.70;99.40;;;;;;5049435;28;20044;-64
2021/07/13 05:33:32;;;;;;;8.55;2.60;;;21.80;99.90;;;;;;5048002;28;20041;-64
2021/07/13 05:36:37;;;;;;;7.22;3.10;;;21.80;99.90;;;;;;5045585;28;20038;-64
2021/07/13 05:39:41;;;;;;;8.55;3.05;;;22.00;99.20;;;;;;5030559;28;20060;-64
2021/07/13 05:42:45;;;;;;;6.82;2.90;;;22.10;98.90;;;;;;5040342;28;20415;-64
2021/07/13 05:45:49;;;;;;;13.68;3.15;;;22.00;99.40;;;;;;5050952;28;20037;-64
2021/07/13 05:48:53;;;;;;;9.85;3.53;;;22.10;99.70;;;;;;5043978;28;20048;-64
2021/07/13 05:51:59;;;;;;;3.75;2.80;;;22.00;98.80;;;;;;5050112;28;20659;-64
2021/07/13 05:55:04;;;;;;;9.52;3.00;;;21.90;99.00;;;;;;5050373;28;20056;-65
2021/07/13 05:58:08;;;;;;;7.05;3.03;;;22.00;99.00;;;;;;5050237;28;20044;-64
2021/07/13 06:01:12;;;;;;;6.75;2.42;;;22.10;99.10;;;;;;5049365;28;20052;-64
2021/07/13 06:04:17;;;;;;;6.88;2.90;;;22.30;99.20;;;;;;5050274;28;20029;-65
2021/07/13 06:07:21;;;;;;;5.70;2.90;;;22.30;99.60;;;;;;5044021;28;20546;-64
2021/07/13 06:10:25;;;;;;;9.48;2.80;;;22.50;99.90;;;;;;5043365;28;20925;-64
2021/07/13 06:13:29;;;;;;;4.28;2.42;;;22.80;99.80;;;;;;5044410;28;20044;-64
2021/07/13 06:16:33;;;;;;;6.60;2.60;;;23.00;99.10;;;;;;5049711;28;20045;-64
2021/07/13 06:19:37;;;;;;;9.32;3.38;;;23.00;99.10;;;;;;5041925;28;20037;-64
2021/07/13 06:22:41;;;;;;;8.13;3.42;;;23.00;99.20;;;;;;5046339;28;20041;-64
2021/07/13 06:25:46;;;;;;;12.27;2.63;;;22.90;99.90;;;;;;5047258;28;20045;-64
2021/07/13 06:28:50;;;;;;;13.07;3.22;;;22.70;99.90;;;;;;5049792;28;20029;-64
2021/07/13 06:31:54;;;;;;;6.15;3.53;;;22.50;99.90;;;;;;5049653;28;20052;-62
2021/07/13 06:34:58;;;;;;;7.28;3.08;;;22.00;99.90;;;;;;5050147;28;20033;-63
2021/07/13 06:38:03;;;;;;;5.25;2.83;;;21.70;99.90;;;;;;5054199;28;20040;-64
2021/07/13 06:41:07;;;;;;;5.68;3.35;;;21.70;99.90;;;;;;5053131;28;20041;-63
2021/07/13 06:44:11;;;;;;;8.45;3.20;;;21.70;99.90;;;;;;5053978;28;20053;-63
2021/07/13 06:47:16;;;;;;;9.77;3.22;;;21.60;99.90;;;;;;5040960;28;20029;-63
2021/07/13 06:50:22;;;;;;;10.40;3.20;;;22.00;99.90;;;;;;5053258;28;20045;-62
2021/07/13 06:53:27;;;;;;;5.40;3.10;;;22.30;99.90;;;;;;5042371;28;20388;-63
2021/07/13 06:56:31;;;;;;;12.45;2.97;;;22.80;99.90;;;;;;5053854;28;20052;-63
2021/07/13 06:59:37;;;;;;;9.35;2.92;;;23.40;99.90;;;;;;5053498;28;20044;-64
2021/07/13 07:02:41;;;;;;;6.28;2.70;;;24.10;99.90;;;;;;5053253;28;20403;-64
2021/07/13 07:05:45;;;;;;;9.93;2.85;;;24.90;99.30;;;;;;5053820;28;20047;-63
2021/07/13 07:08:49;;;;;;;9.50;2.60;;;26.00;97.50;;;;;;5053623;28;20048;-63
2021/07/13 07:11:53;;;;;;;6.22;2.38;;;27.20;95.50;;;;;;5053075;28;20059;-63
2021/07/13 07:14:57;;;;;;;7.25;2.08;;;28.90;93.30;;;;;;5045261;28;20380;-64
2021/07/13 07:18:01;;;;;;;6.05;2.08;;;30.50;90.90;;;;;;5052199;28;20482;-65
2021/07/13 07:21:06;;;;;;;10.48;2.53;;;31.60;87.70;;;;;;5033184;28;20041;-64
2021/07/13 07:24:10;;;;;;;4.95;1.73;;;32.10;84.00;;;;;;5052496;28;20036;-64
2021/07/13 07:27:14;;;;;;;7.43;2.10;;;32.00;82.70;;;;;;5047465;28;20048;-65
2021/07/13 07:30:18;;;;;;;7.05;2.60;;;31.80;82.60;;;;;;5052397;28;20736;-65
2021/07/13 07:33:22;;;;;;;7.57;2.30;;;32.00;81.10;;;;;;5033617;28;20033;-65
2021/07/13 07:36:28;;;;;;;5.13;2.35;;;32.60;80.00;;;;;;5042729;28;20025;-65
2021/07/13 07:39:32;;;;;;;4.63;1.92;;;31.70;80.70;;;;;;5041415;28;20044;-64
2021/07/13 07:42:38;;;;;;;7.38;2.25;;;33.00;79.40;;;;;;5039713;28;20037;-63
2021/07/13 07:45:42;;;;;;;3.83;2.05;;;34.30;77.00;;;;;;5046008;28;20040;-65
2021/07/13 07:48:47;;;;;;;6.72;2.10;;;35.40;75.30;;;;;;5052835;28;20407;-64
2021/07/13 07:51:51;;;;;;;5.70;1.98;;;33.90;74.00;;;;;;5052327;28;20045;-65
2021/07/13 07:54:58;;;;;;;7.80;2.15;;;31.40;76.40;;;;;;5053007;28;20368;-64
2021/07/13 07:58:02;;;;;;;4.22;2.20;;;31.40;78.90;;;;;;5041326;28;20392;-64
2021/07/13 08:01:06;;;;;;;5.40;2.10;;;33.00;77.40;;;;;;5052006;28;20048;-65
2021/07/13 08:04:10;;;;;;;6.88;2.60;;;34.50;75.60;;;;;;5052175;28;20041;-65
2021/07/13 08:07:14;;;;;;;11.30;2.45;;;35.10;73.10;;;;;;5052299;28;20524;-64
2021/07/13 08:10:19;;;;;;;7.38;1.90;;;33.70;73.40;;;;;;5051465;28;20044;-64
2021/07/13 08:13:23;;;;;;;6.40;2.05;;;34.40;73.80;;;;;;5052334;28;20041;-64
2021/07/13 08:16:27;;;;;;;10.93;2.92;;;35.40;73.00;;;;;;5051957;28;20056;-64
2021/07/13 08:19:38;;;;;;;10.40;2.50;;;35.20;72.60;;;;;;5051565;28;20040;-63
2021/07/13 08:22:49;;;;;;;;;;;35.50;71.10;;;;;;5052524;28;20395;-64
2021/07/13 08:25:54;;;;;;;10.85;3.25;;;34.70;71.20;;;;;;5052237;28;19916;-63
2021/07/13 08:28:59;;;;;;;5.00;2.13;;;33.30;75.80;;;;;;5048313;28;20048;-64
2021/07/13 08:32:04;;;;;;;7.10;2.30;;;33.90;75.50;;;;;;5046459;28;20036;-63
2021/07/13 08:35:09;;;;;;;10.52;2.30;;;31.90;79.10;;;;;;5051779;28;20056;-64
2021/07/13 08:38:13;;;;;;;6.55;1.98;;;33.30;77.50;;;;;;5051853;28;20409;-65
2021/07/13 08:41:20;;;;;;;9.63;2.00;;;34.70;75.70;;;;;;5051464;28;20481;-65
2021/07/13 08:44:24;;;;;;;10.18;2.13;;;35.80;74.20;;;;;;5047986;28;20392;-65
2021/07/13 08:47:28;;;;;;;5.50;2.15;;;36.90;72.90;;;;;;5044249;28;20051;-64
2021/07/13 08:50:34;;;;;;;5.00;2.03;;;35.60;73.00;;;;;;5031126;28;20073;-65
2021/07/13 08:53:40;;;;;;;7.38;2.10;;;35.70;72.50;;;;;;5047586;28;20048;-64
2021/07/13 08:56:44;;;;;;;2.80;1.90;;;36.40;72.20;;;;;;5048430;28;20479;-65
2021/07/13 08:59:48;;;;;;;6.07;2.20;;;35.50;72.30;;;;;;5041529;28;20048;-65
2021/07/13 09:03:06;;;;;;;11.95;2.80;;;34.10;72.30;;;;;;5045767;28;20044;-65
2021/07/13 09:06:10;;;;;;;9.35;2.33;;;33.50;72.80;;;;;;5051409;28;20052;-63
2021/07/13 09:09:32;;;;;;;7.15;2.47;;;31.70;73.30;;;;;;5050858;28;20632;-63
2021/07/13 09:12:35;;;;;;;4.43;2.22;;;31.00;76.30;;;;;;5049235;28;20072;-63
2021/07/13 09:15:57;;;;;;;12.68;2.58;;;29.90;77.10;;;;;;5038219;28;20033;-63
2021/07/13 09:19:02;;;;;;;9.02;2.78;;;29.40;77.60;;;;;;5046405;28;20040;-63
2021/07/13 09:22:06;;;;;;;7.47;2.40;;;29.60;78.50;;;;;;5038441;28;20040;-63
2021/07/13 09:25:41;;;;;;;8.40;3.15;;;30.40;76.40;;;;;;5050099;28;20486;-63
2021/07/13 09:28:45;;;;;;;10.95;2.58;;;29.90;77.60;;;;;;5046928;28;20391;-64
2021/07/13 09:31:49;;;;;;;10.57;2.90;;;30.10;77.70;;;;;;5037209;28;20056;-64
2021/07/13 09:35:21;;;;;;;4.15;2.50;;;29.30;78.70;;;;;;5050569;28;20077;-63
2021/07/13 09:38:27;;;;;;;8.52;2.67;;;29.10;82.20;;;;;;5048234;28;20126;-63
2021/07/13 09:41:32;;;;;;;9.52;3.03;;;29.70;82.20;;;;;;5039883;28;20364;-64
2021/07/13 09:44:41;;;;;;;11.35;3.28;;;30.60;80.10;;;;;;5049832;28;20053;-64
2021/07/13 09:47:46;;;;;;;11.90;3.50;;;29.80;84.20;;;;;;5048485;28;20494;-64
2021/07/13 09:50:50;;;;;;;10.27;3.47;;;28.60;90.20;;;;;;5049661;28;20040;-64
2021/07/13 09:53:54;;;;;;;10.07;3.70;;;28.30;91.30;;;;;;5050416;28;20040;-64
2021/07/13 09:57:00;;;;;;;12.15;3.60;;;27.60;92.60;;;;;;5050593;28;20495;-64
2021/07/13 10:00:04;;;;;;;63.58;6.22;;;27.30;93.60;;;;;;5050008;28;20040;-64
2021/07/13 10:03:14;;;;;;;9.77;3.85;;;27.40;94.10;;;;;;5050846;28;20115;-65
2021/07/13 10:06:20;;;;;;;21.92;4.22;;;27.50;94.60;;;;;;5050439;28;20044;-64
2021/07/13 10:09:29;;;;;;;10.60;3.53;;;27.90;94.30;;;;;;5050770;28;20067;-64
2021/07/13 10:12:34;;;;;;;22.05;4.07;;;28.30;94.20;;;;;;5049720;28;20052;-64
2021/07/13 10:15:39;;;;;;;12.75;3.40;;;28.40;94.10;;;;;;5053932;28;20040;-65
2021/07/13 10:18:45;;;;;;;18.63;4.05;;;28.40;94.10;;;;;;5054788;28;20044;-64
2021/07/13 10:21:50;;;;;;;17.17;4.30;;;28.40;94.50;;;;;;5053920;28;20048;-64
2021/07/13 10:24:59;;;;;;;16.23;4.32;;;28.40;94.90;;;;;;5053631;28;20052;-65
2021/07/13 10:28:04;;;;;;;21.55;5.03;;;28.80;94.50;;;;;;5055110;28;20048;-64
2021/07/13 10:31:11;;;;;;;14.10;4.10;;;29.10;94.70;;;;;;5053593;28;20043;-64
2021/07/13 10:34:50;;;;;;;11.80;3.90;;;29.50;94.00;;;;;;5053907;28;20032;-64
2021/07/13 10:37:57;;;;;;;16.60;3.75;;;29.50;93.20;;;;;;5054195;28;20036;-64
2021/07/13 10:41:01;;;;;;;16.42;3.90;;;29.20;93.30;;;;;;5053944;28;20028;-64
2021/07/13 10:44:05;;;;;;;18.63;3.88;;;28.90;94.00;;;;;;5053724;28;20040;-64
2021/07/13 10:47:23;;;;;;;21.52;3.92;;;29.30;93.50;;;;;;5038712;28;20052;-64
2021/07/13 10:50:27;;;;;;;20.77;4.45;;;29.10;93.80;;;;;;5033154;28;20064;-66
2021/07/13 10:53:42;;;;;;;22.15;4.75;;;29.00;93.30;;;;;;5049833;28;20040;-66
2021/07/13 10:56:46;;;;;;;21.10;4.55;;;29.00;93.30;;;;;;5033925;28;20033;-67
2021/07/13 10:59:51;;;;;;;26.33;5.13;;;28.80;93.40;;;;;;5040512;28;20036;-67
2021/07/13 11:02:55;;;;;;;16.25;4.40;;;28.70;93.60;;;;;;5052370;28;20040;-66
2021/07/13 11:06:17;;;;;;;21.75;4.93;;;28.50;94.00;;;;;;5051955;28;20040;-66
2021/07/13 11:09:33;;;;;;;27.60;5.50;;;28.30;94.50;;;;;;5040343;28;20044;-65
2021/07/13 11:12:38;;;;;;;18.25;4.60;;;28.00;95.40;;;;;;5053081;28;20056;-66
2021/07/13 11:15:48;;;;;;;30.13;5.65;;;27.50;96.90;;;;;;5052955;28;20638;-69
2021/07/13 11:18:52;;;;;;;24.90;8.25;;;27.10;99.60;;;;;;5050033;28;20035;-69
2021/07/13 11:21:58;;;;;;;25.15;8.63;;;26.10;99.90;;;;;;5047275;28;20043;-68
2021/07/13 11:25:03;;;;;;;45.65;10.25;;;24.80;99.90;;;;;;5053514;28;20490;-69
2021/07/13 11:28:07;;;;;;;45.17;12.27;;;24.00;99.90;;;;;;5052188;28;20048;-68
2021/07/13 11:31:29;;;;;;;43.03;12.77;;;23.70;99.90;;;;;;5032749;28;20669;-67
2021/07/13 11:34:40;;;;;;;40.22;13.98;;;23.40;99.90;;;;;;5045500;28;20040;-68
2021/07/13 11:37:55;;;;;;;12.68;5.68;;;23.50;99.90;;;;;;5051044;28;20064;-68
2021/07/13 11:41:12;;;;;;;18.27;5.38;;;24.10;99.90;;;;;;5047889;28;20040;-68
2021/07/13 11:44:17;;;;;;;20.10;5.20;;;24.50;99.90;;;;;;5052122;28;20047;-68
2021/07/13 11:47:26;;;;;;;15.40;5.22;;;23.50;99.90;;;;;;5051887;28;20056;-68
2021/07/13 11:50:30;;;;;;;14.02;5.88;;;23.30;99.90;;;;;;5051625;28;20613;-68
2021/07/13 11:53:35;;;;;;;20.45;6.80;;;22.90;99.90;;;;;;5052033;28;20036;-68
2021/07/13 11:56:48;;;;;;;20.05;6.18;;;22.70;99.90;;;;;;5047522;28;20548;-68
2021/07/13 11:59:53;;;;;;;19.42;6.15;;;22.70;99.90;;;;;;5037482;28;20036;-68
2021/07/13 12:02:57;;;;;;;19.52;6.32;;;22.70;99.90;;;;;;5052560;28;20036;-68
2021/07/13 12:06:14;;;;;;;18.15;6.22;;;23.00;99.90;;;;;;5050530;28;20040;-68
2021/07/13 12:09:27;;;;;;;18.98;6.35;;;23.20;99.90;;;;;;5048199;28;20482;-69
2021/07/13 12:12:37;;;;;;;12.23;5.18;;;23.40;99.90;;;;;;5037530;28;20048;-69
2021/07/13 12:15:41;;;;;;;15.38;5.10;;;24.00;99.90;;;;;;5050825;28;20395;-68
2021/07/13 12:18:46;;;;;;;21.70;6.20;;;24.20;99.90;;;;;;5051314;28;20040;-68
2021/07/13 12:22:00;;;;;;;14.05;4.93;;;24.20;99.90;;;;;;5051509;28;20040;-68
2021/07/13 12:25:07;;;;;;;15.40;5.13;;;24.20;99.90;;;;;;5048266;28;20091;-67
2021/07/13 12:42:31;;;;;;;24.27;5.53;;;25.10;99.90;;;;;;5047850;28;20028;-67
2021/07/13 12:45:35;;;;;;;19.27;5.57;;;24.90;99.90;;;;;;5047212;28;20040;-68
2021/07/13 12:48:39;;;;;;;20.08;5.65;;;24.90;99.90;;;;;;5045227;28;20052;-68
2021/07/13 12:51:44;;;;;;;18.27;5.35;;;25.20;99.90;;;;;;5049936;28;20411;-70
2021/07/13 12:55:02;;;;;;;20.70;5.65;;;25.40;99.90;;;;;;5049823;28;20032;-69
2021/07/13 12:58:10;;;;;;;21.80;5.75;;;25.70;99.90;;;;;;5047743;28;20040;-68
2021/07/13 13:01:16;;;;;;;17.63;5.55;;;26.20;99.90;;;;;;5049851;28;20395;-68
2021/07/13 13:04:20;;;;;;;16.30;5.22;;;26.60;99.90;;;;;;5048711;28;20040;-69
2021/07/13 13:07:25;;;;;;;17.67;5.93;;;26.80;99.90;;;;;;5049952;28;20040;-69
2021/07/13 13:10:29;;;;;;;10.60;3.67;;;27.20;99.90;;;;;;5049395;28;20036;-68
2021/07/13 13:13:36;;;;;;;17.13;5.43;;;27.20;99.90;;;;;;5040654;28;20040;-67
2021/07/13 13:16:40;;;;;;;15.20;4.40;;;26.90;99.90;;;;;;5047849;28;20036;-67
2021/07/13 13:19:47;;;;;;;17.50;5.30;;;26.70;99.90;;;;;;5048080;28;20051;-69
2021/07/13 13:22:56;;;;;;;24.00;5.25;;;26.60;99.90;;;;;;5034358;28;20061;-68
2021/07/13 13:26:01;;;;;;;16.27;4.35;;;26.60;99.90;;;;;;5049659;28;20040;-67
2021/07/13 13:29:05;;;;;;;16.13;5.00;;;26.80;99.90;;;;;;5046029;28;20035;-68
2021/07/13 13:32:09;;;;;;;14.40;5.13;;;27.50;99.90;;;;;;5050187;28;20044;-67
2021/07/13 13:35:25;;;;;;;18.70;5.15;;;27.90;99.90;;;;;;5048056;28;20055;-66
2021/07/13 13:41:33;;;;;;;16.15;5.13;;;27.70;99.90;;;;;;5039606;28;20503;-67
2021/07/13 13:44:37;;;;;;;16.73;4.63;;;27.30;99.90;;;;;;5039819;28;20036;-66
2021/07/13 13:47:41;;;;;;;16.88;5.25;;;27.00;99.90;;;;;;5044611;28;20051;-67
2021/07/13 13:50:45;;;;;;;10.88;4.43;;;26.70;99.90;;;;;;5030380;28;20050;-66
2021/07/13 13:53:50;;;;;;;12.90;6.18;;;26.40;99.90;;;;;;5032578;28;20048;-67
2021/07/13 13:56:54;;;;;;;12.98;4.60;;;26.30;99.90;;;;;;5050579;28;20482;-67
2021/07/13 13:59:58;;;;;;;13.85;5.80;;;26.60;99.90;;;;;;5050768;28;20363;-67
2021/07/13 14:03:02;;;;;;;17.05;5.07;;;27.50;99.90;;;;;;5050968;28;20056;-67
2021/07/13 14:06:08;;;;;;;16.95;5.25;;;28.50;99.90;;;;;;5050677;28;20044;-67
2021/07/13 14:09:12;;;;;;;13.15;4.45;;;29.00;99.90;;;;;;5042214;28;20044;-67
2021/07/13 14:12:17;;;;;;;17.75;4.55;;;29.00;99.90;;;;;;5048141;28;20043;-67
2021/07/13 14:15:21;;;;;;;17.40;4.50;;;29.10;99.90;;;;;;5046667;28;20506;-67
2021/07/13 14:18:26;;;;;;;18.23;4.65;;;29.10;99.90;;;;;;5042188;28;20064;-68
2021/07/13 14:21:31;;;;;;;20.95;5.50;;;28.70;99.90;;;;;;5050182;28;20072;-67
2021/07/13 14:24:36;;;;;;;18.00;4.35;;;28.40;99.90;;;;;;5050133;28;20056;-68
2021/07/13 14:27:41;;;;;;;13.45;4.82;;;28.20;99.90;;;;;;5043636;28;20044;-67
2021/07/13 14:30:45;;;;;;;12.82;4.90;;;28.00;99.90;;;;;;5049801;28;20048;-67
2021/07/13 14:33:52;;;;;;;14.90;5.35;;;27.50;99.90;;;;;;5050163;28;20047;-68
2021/07/13 14:36:58;;;;;;;16.67;5.30;;;27.30;99.90;;;;;;5049894;28;20044;-68
2021/07/13 14:40:04;;;;;;;13.20;4.88;;;27.20;99.90;;;;;;5049928;28;20039;-68
2021/07/13 14:43:07;;;;;;;15.27;4.78;;;26.90;99.90;;;;;;5049960;28;20065;-69
2021/07/13 14:46:11;;;;;;;23.45;6.00;;;26.80;99.90;;;;;;5037051;28;20502;-67
2021/07/13 14:49:15;;;;;;;14.65;5.45;;;26.80;99.90;;;;;;5030323;28;20044;-67
2021/07/13 14:52:20;;;;;;;18.25;5.47;;;26.60;99.90;;;;;;5037527;28;20407;-68
2021/07/13 14:55:24;;;;;;;10.45;4.82;;;26.60;99.90;;;;;;5050006;28;20068;-67
2021/07/13 14:58:28;;;;;;;15.10;5.00;;;26.70;99.90;;;;;;5053394;28;20043;-67
2021/07/13 15:01:32;;;;;;;11.65;5.20;;;26.90;99.90;;;;;;5053178;28;20048;-67
2021/07/13 15:04:36;;;;;;;12.95;4.82;;;27.20;99.90;;;;;;5053699;28;20056;-67
2021/07/13 15:07:41;;;;;;;14.57;5.07;;;27.30;99.90;;;;;;5049200;28;20047;-67
2021/07/13 15:10:51;;;;;;;17.33;4.95;;;27.50;99.90;;;;;;5036163;28;20048;-68
2021/07/13 15:13:56;;;;;;;15.02;5.22;;;27.70;99.90;;;;;;5031405;28;20368;-68
2021/07/13 15:17:03;;;;;;;8.85;4.43;;;27.70;99.90;;;;;;5047123;28;20052;-67
2021/07/13 15:20:08;;;;;;;9.23;4.43;;;27.70;99.90;;;;;;5049000;28;20048;-68
2021/07/13 15:23:13;;;;;;;7.25;4.40;;;27.50;99.90;;;;;;5048360;28;20357;-67
2021/07/13 15:26:18;;;;;;;9.52;4.00;;;27.10;99.90;;;;;;5042183;28;20048;-67
2021/07/13 15:29:23;;;;;;;11.50;4.18;;;26.90;99.90;;;;;;5033668;28;20057;-67
2021/07/13 15:32:29;;;;;;;8.65;4.13;;;27.00;99.90;;;;;;5020651;28;20045;-67
2021/07/13 15:35:38;;;;;;;11.85;4.15;;;27.20;99.90;;;;;;5033028;28;20044;-67
2021/07/13 15:38:43;;;;;;;8.80;3.90;;;27.30;99.90;;;;;;5033202;28;20040;-68
2021/07/13 15:41:47;;;;;;;9.30;4.65;;;27.30;99.90;;;;;;5032443;28;20405;-68
2021/07/13 15:44:51;;;;;;;10.82;4.40;;;26.90;99.90;;;;;;5032792;28;20033;-67
2021/07/13 15:47:55;;;;;;;10.00;4.50;;;26.80;99.90;;;;;;5033038;28;20049;-67
2021/07/13 15:50:59;;;;;;;6.72;4.00;;;26.60;99.90;;;;;;5032128;28;20044;-67
2021/07/13 15:54:03;;;;;;;11.27;4.75;;;26.50;99.90;;;;;;5032780;28;20029;-67
2021/07/13 15:57:09;;;;;;;11.85;4.50;;;26.30;99.90;;;;;;5042933;28;20053;-66
2021/07/13 16:00:15;;;;;;;7.85;3.72;;;26.20;99.90;;;;;;5032068;28;20040;-67
2021/07/13 16:03:20;;;;;;;8.20;3.55;;;26.10;99.90;;;;;;5032439;28;20413;-66
2021/07/13 16:06:24;;;;;;;7.57;2.95;;;26.10;99.90;;;;;;5032265;28;20041;-66
2021/07/13 16:09:28;;;;;;;5.75;2.92;;;26.30;99.90;;;;;;5032538;28;20404;-68
2021/07/13 16:12:33;;;;;;;10.25;3.38;;;26.50;99.90;;;;;;5032481;28;20034;-67
2021/07/13 16:15:37;;;;;;;9.68;3.40;;;26.50;99.90;;;;;;5032516;28;20060;-67
2021/07/13 16:18:43;;;;;;;7.57;3.10;;;26.60;99.90;;;;;;5032502;28;20037;-68
2021/07/13 16:21:47;;;;;;;7.43;3.08;;;26.60;99.90;;;;;;5031767;28;20420;-68